Reynoldsburg, Illinois
Current Conditions -  °F | °C
As of 4:52 PM on Thursday 20 Nov 2014 (Local Time) from KMWA Reporting Station
Clear Clear  
Wind Chill: 31°   Ceiling: Unl
Heat Index: 36°   Visibility: 20mi
Dew Point: 19°   Wind: 6mph
Humidity: 52%   Direction: 300°WNW
Pressure: 30.23"   Gusts: NA
Location:  37.5342°N, 88.7644°W
Report Text: KMWA 202252Z 30005KT 20SM SKC 02/M07 A3023
Loading
Personal Weather Stations






























Interactive Weather Map New forecast layout! Learn more

10-Day Weather Forecast

Advertisements
Track Severe Weather on mobile